Time;durP1;ratioP1;P1;durP2;ratioP2;P2;SDS_P1;SDS_P2;PMS_P1;PMS_P2;Temp;Humidity;BMP_temperature;BMP_pressure;BME280_temperature;BME280_humidity;BME280_pressure;Samples;Min_cycle;Max_cycle;Signal;HPM_P1;HPM_P2
2022/07/17 08:28:46;;;;;;;;;;;;;;;32.51;25.96;101763.97;4899375;28;97936;-65
2022/07/17 14:36:29;;;;;;;;;;;;;;;29.96;23.67;101533.84;4908668;28;97986;-57
2022/07/17 14:39:22;;;;;;;;;;;;;;;29.78;24.01;101532.75;4904420;28;98057;-63
2022/07/17 19:23:41;;;;;;;;;;;;;;;21.82;34.25;101519.50;4820022;28;98126;-57
2022/07/17 21:04:26;;;;;;;;;;;;;;;18.81;40.17;101572.47;4841294;28;98108;-63
2022/07/17 21:11:16;;;;;;;;;;;;;;;18.72;40.43;101577.78;4859358;28;98057;-63
2022/07/17 21:14:08;;;;;;;;;;;;;;;18.64;40.39;101584.69;4846006;28;98218;-57
2022/07/17 21:17:01;;;;;;;;;;;;;;;18.57;40.67;101578.78;4841864;28;98284;-64
2022/07/17 21:19:54;;;;;;;;;;;;;;;18.50;40.77;101575.59;4904603;28;98191;-64
2022/07/17 21:22:47;;;;;;;;;;;;;;;18.45;40.71;101586.59;4841674;28;98532;-64
2022/07/17 21:25:39;;;;;;;;;;;;;;;18.37;41.01;101579.88;4839780;28;98715;-56
2022/07/17 21:28:32;;;;;;;;;;;;;;;18.34;41.14;101590.56;4841804;28;97722;-63
2022/07/17 21:31:24;;;;;;;;;;;;;;;18.28;41.24;101586.28;4841721;28;98587;-56
2022/07/17 21:34:17;;;;;;;;;;;;;;;18.23;41.47;101589.84;4840526;28;98655;-57
2022/07/17 21:37:09;;;;;;;;;;;;;;;18.16;41.44;101586.69;4840848;28;98003;-57
2022/07/17 21:40:02;;;;;;;;;;;;;;;18.10;41.67;101593.31;4841475;28;98271;-57
2022/07/17 21:42:55;;;;;;;;;;;;;;;18.02;41.87;101586.56;4841336;28;98229;-63
2022/07/17 21:45:48;;;;;;;;;;;;;;;17.96;41.69;101592.38;4841573;28;98708;-63
2022/07/17 21:48:40;;;;;;;;;;;;;;;17.90;41.89;101594.34;4841001;28;97581;-63
2022/07/17 21:51:33;;;;;;;;;;;;;;;17.83;41.83;101602.06;4841232;28;97783;-56
2022/07/17 21:54:25;;;;;;;;;;;;;;;17.76;41.82;101605.09;4841216;28;98147;-57
2022/07/17 21:57:18;;;;;;;;;;;;;;;17.71;41.81;101601.59;4905117;28;98057;-57
2022/07/17 22:00:20;;;;;;;;;;;;;;;17.65;41.80;101598.13;4841749;28;97925;-63
2022/07/17 22:03:12;;;;;;;;;;;;;;;17.59;41.83;101605.53;4841423;28;99600;-57
2022/07/17 22:06:05;;;;;;;;;;;;;;;17.55;41.92;101601.75;4840906;28;99344;-64
2022/07/17 22:08:58;;;;;;;;;;;;;;;17.50;41.90;101606.44;4840687;28;98453;-56
2022/07/17 22:11:50;;;;;;;;;;;;;;;17.45;42.03;101607.31;4840811;28;98310;-57
2022/07/17 22:14:43;;;;;;;;;;;;;;;17.38;42.23;101601.38;4840965;28;97863;-57
2022/07/17 22:17:36;;;;;;;;;;;;;;;17.31;42.16;101607.13;4840990;28;97908;-56
2022/07/17 22:20:28;;;;;;;;;;;;;;;17.26;42.35;101604.47;4840461;28;99116;-56
2022/07/17 22:23:21;;;;;;;;;;;;;;;17.18;42.22;101611.31;4841773;28;98028;-56
2022/07/17 22:26:13;;;;;;;;;;;;;;;17.13;42.38;101614.09;4840690;28;98280;-57
2022/07/17 22:29:06;;;;;;;;;;;;;;;17.09;42.28;101618.47;4840935;28;98909;-63
2022/07/17 22:31:59;;;;;;;;;;;;;;;17.06;42.80;101616.31;4840115;28;98924;-64
2022/07/17 22:34:51;;;;;;;;;;;;;;;17.02;42.73;101611.72;4843103;28;97868;-63
2022/07/17 22:37:44;;;;;;;;;;;;;;;17.00;42.88;101619.34;4844183;28;98349;-63
2022/07/17 22:40:37;;;;;;;;;;;;;;;16.94;43.15;101621.31;4842348;28;97874;-63
2022/07/17 22:43:29;;;;;;;;;;;;;;;16.90;43.20;101623.78;4844179;28;97936;-57
2022/07/17 22:46:22;;;;;;;;;;;;;;;16.86;43.32;101621.91;4843049;28;98063;-57
2022/07/17 22:49:14;;;;;;;;;;;;;;;16.79;43.24;101615.97;4843699;28;98085;-56
2022/07/17 22:52:07;;;;;;;;;;;;;;;16.72;43.54;101627.13;4843898;28;98261;-57
2022/07/17 22:55:00;;;;;;;;;;;;;;;16.67;43.60;101622.50;4843093;28;98379;-56
2022/07/17 22:57:52;;;;;;;;;;;;;;;16.64;43.77;101611.38;4843481;28;97933;-63
2022/07/17 23:00:45;;;;;;;;;;;;;;;16.61;43.96;101614.66;4843071;28;97926;-57
2022/07/17 23:03:38;;;;;;;;;;;;;;;16.59;43.94;101612.22;4842770;28;98407;-56
2022/07/17 23:06:33;;;;;;;;;;;;;;;16.55;43.94;101605.69;4842852;28;98258;-63
2022/07/17 23:09:26;;;;;;;;;;;;;;;16.50;43.97;101605.72;4842552;28;98051;-63
2022/07/17 23:12:19;;;;;;;;;;;;;;;16.44;44.01;101604.94;4843435;28;97982;-56
2022/07/17 23:15:11;;;;;;;;;;;;;;;16.39;44.03;101602.25;4841961;28;97799;-63
2022/07/17 23:18:04;;;;;;;;;;;;;;;16.37;44.28;101603.59;4842770;28;98159;-63
2022/07/17 23:20:56;;;;;;;;;;;;;;;16.35;44.06;101594.91;4843128;28;97912;-57
2022/07/17 23:23:49;;;;;;;;;;;;;;;16.32;44.25;101598.19;4843089;28;98061;-63
2022/07/17 23:26:42;;;;;;;;;;;;;;;16.30;44.19;101598.44;4843012;28;99332;-57
2022/07/17 23:29:34;;;;;;;;;;;;;;;16.28;44.06;101594.41;4843113;28;98139;-63
2022/07/17 23:32:51;;;;;;;;;;;;;;;16.24;44.17;101593.34;4843788;28;97816;-57
2022/07/17 23:35:37;;;;;;;;;;;;;;;16.20;44.34;101587.63;4845865;28;98505;-63
2022/07/17 23:38:30;;;;;;;;;;;;;;;16.15;44.20;101583.03;4907200;28;100025;-63
2022/07/17 23:41:22;;;;;;;;;;;;;;;16.13;44.27;101581.66;4842837;28;98420;-64
2022/07/17 23:44:15;;;;;;;;;;;;;;;16.09;44.30;101580.59;4841772;28;98518;-57
2022/07/17 23:47:07;;;;;;;;;;;;;;;16.07;44.33;101586.31;4843223;28;98056;-64
2022/07/17 23:50:00;;;;;;;;;;;;;;;16.04;44.15;101591.50;4842604;28;98831;-57
2022/07/17 23:52:53;;;;;;;;;;;;;;;16.00;44.16;101590.41;4842242;28;98153;-63
2022/07/17 23:55:45;;;;;;;;;;;;;;;15.98;44.58;101579.81;4842018;28;98109;-56
2022/07/17 23:58:38;;;;;;;;;;;;;;;16.02;44.18;101580.88;4842511;28;97996;-64
